createdAt,value
2022-12-22T00:01:38.593Z,2.51
2022-12-22T00:07:02.844Z,2.50
2022-12-22T00:12:29.859Z,2.51
2022-12-22T00:17:54.564Z,2.50
2022-12-22T00:23:19.071Z,2.50
2022-12-22T00:28:43.793Z,2.54
2022-12-22T00:34:08.251Z,2.57
2022-12-22T00:39:34.392Z,2.57
2022-12-22T00:44:59.110Z,2.60
2022-12-22T00:50:26.884Z,2.66
2022-12-22T00:55:52.287Z,2.66
2022-12-22T01:01:17.100Z,2.65
2022-12-22T01:06:43.423Z,2.65
2022-12-22T01:12:07.998Z,2.66
2022-12-22T01:17:32.873Z,2.64
2022-12-22T01:22:57.372Z,2.62
2022-12-22T01:28:22.933Z,2.63
2022-12-22T01:33:47.324Z,2.65
2022-12-22T01:39:11.914Z,2.62
2022-12-22T01:44:37.622Z,2.59
2022-12-22T01:50:04.091Z,2.60
2022-12-22T01:55:34.721Z,2.62
2022-12-22T02:01:00.818Z,2.59
2022-12-22T02:06:34.785Z,2.57
2022-12-22T02:12:07.364Z,2.58
2022-12-22T02:17:40.758Z,2.57
2022-12-22T02:23:11.754Z,2.56
2022-12-22T02:28:36.694Z,2.58
2022-12-22T02:34:01.190Z,2.59
2022-12-22T02:39:37.908Z,2.56
2022-12-22T02:45:11.958Z,2.56
2022-12-22T02:50:41.519Z,2.60
2022-12-22T02:56:06.777Z,2.60
2022-12-22T03:01:32.090Z,2.57
2022-12-22T03:06:56.579Z,2.59
2022-12-22T03:12:21.130Z,2.60
2022-12-22T03:17:45.668Z,2.60
2022-12-22T03:23:10.329Z,2.60
2022-12-22T03:28:15.938Z,2.61
2022-12-22T03:33:21.995Z,2.60
2022-12-22T03:38:28.333Z,2.58
2022-12-22T03:43:52.997Z,2.60
2022-12-22T03:49:12.402Z,2.70
2022-12-22T03:54:20.740Z,2.74
2022-12-22T03:59:26.685Z,2.73
2022-12-22T04:04:32.893Z,2.74
2022-12-22T04:09:58.451Z,2.77
2022-12-22T04:15:04.818Z,2.79
2022-12-22T04:20:12.205Z,2.78
2022-12-22T04:25:18.237Z,2.83
2022-12-22T04:30:23.976Z,2.87
2022-12-22T04:35:29.705Z,2.89
2022-12-22T04:40:35.546Z,2.88
2022-12-22T04:45:41.550Z,2.89
2022-12-22T04:50:49.866Z,2.92
2022-12-22T04:55:59.444Z,2.95
2022-12-22T05:01:13.540Z,2.95
2022-12-22T05:06:19.364Z,2.94
2022-12-22T05:11:25.119Z,2.96
2022-12-22T05:16:31.271Z,2.94
2022-12-22T05:21:37.602Z,2.93
2022-12-22T05:26:43.417Z,2.93
2022-12-22T05:31:49.170Z,2.95
2022-12-22T05:36:54.910Z,2.93
2022-12-22T05:42:00.503Z,2.90
2022-12-22T05:47:06.354Z,2.93
2022-12-22T05:52:12.125Z,2.98
2022-12-22T05:57:17.979Z,2.99
2022-12-22T06:02:24.101Z,2.99
2022-12-22T06:07:30.374Z,3.00
2022-12-22T06:12:36.395Z,3.02
2022-12-22T06:17:45.101Z,3.01
2022-12-22T06:22:51.227Z,2.96
2022-12-22T06:27:57.120Z,2.95
2022-12-22T06:33:03.837Z,2.98
2022-12-22T06:38:09.818Z,2.98
2022-12-22T06:43:15.552Z,2.95
2022-12-22T06:48:21.371Z,2.96
2022-12-22T06:53:27.365Z,2.98
2022-12-22T06:58:33.244Z,2.96
2022-12-22T07:03:39.311Z,2.94
2022-12-22T07:08:45.056Z,2.94
2022-12-22T07:13:51.334Z,2.92
2022-12-22T07:18:57.079Z,2.91
2022-12-22T07:24:02.786Z,2.92
2022-12-22T07:29:08.650Z,2.97
2022-12-22T07:34:14.570Z,2.98
2022-12-22T07:39:20.383Z,3.02
2022-12-22T07:44:26.119Z,3.10
2022-12-22T07:49:51.156Z,3.19
2022-12-22T07:54:56.930Z,3.26
2022-12-22T08:00:03.105Z,3.31
2022-12-22T08:05:18.380Z,3.39
2022-12-22T08:10:24.222Z,3.47
2022-12-22T08:15:30.142Z,3.53
2022-12-22T08:20:35.948Z,3.61
2022-12-22T08:25:41.909Z,3.76
2022-12-22T08:30:48.436Z,3.88
2022-12-22T08:35:55.016Z,3.96
2022-12-22T08:41:01.158Z,4.07
2022-12-22T08:46:07.215Z,4.20
2022-12-22T08:51:12.965Z,4.33
2022-12-22T08:56:18.598Z,4.42
2022-12-22T09:01:25.077Z,4.47
2022-12-22T09:06:36.514Z,4.47
2022-12-22T09:11:46.620Z,4.41
2022-12-22T09:16:52.877Z,4.46
2022-12-22T09:21:58.690Z,4.63
2022-12-22T09:27:06.735Z,4.80
2022-12-22T09:32:12.781Z,4.83
2022-12-22T09:37:18.739Z,4.91
2022-12-22T09:42:24.728Z,4.98
2022-12-22T09:47:37.949Z,4.94
2022-12-22T09:52:49.452Z,5.03
2022-12-22T09:57:55.427Z,5.14
2022-12-22T10:03:13.145Z,5.24
2022-12-22T10:08:27.719Z,5.33
2022-12-22T10:13:33.841Z,5.44
2022-12-22T10:18:39.865Z,5.57
2022-12-22T10:23:48.002Z,5.59
2022-12-22T10:28:58.810Z,5.60
2022-12-22T10:34:15.031Z,5.50
2022-12-22T10:39:24.957Z,5.43
2022-12-22T10:44:34.933Z,5.42
2022-12-22T10:54:49.531Z,5.44
2022-12-22T10:59:57.291Z,5.39
2022-12-22T11:05:08.976Z,5.30
2022-12-22T11:10:24.550Z,5.29
2022-12-22T11:15:36.657Z,5.21
2022-12-22T11:20:55.747Z,5.09
2022-12-22T11:26:10.006Z,4.99
2022-12-22T11:31:34.442Z,4.94
2022-12-22T11:36:58.437Z,4.89
2022-12-22T11:42:18.499Z,4.87
2022-12-22T11:47:34.210Z,4.94
2022-12-22T11:52:55.777Z,5.07
2022-12-22T11:58:20.077Z,5.23
2022-12-22T12:03:46.099Z,5.33
2022-12-22T12:09:05.212Z,5.33
2022-12-22T12:14:22.889Z,5.30
2022-12-22T12:19:44.403Z,5.28
2022-12-22T12:25:01.330Z,5.34
2022-12-22T12:35:53.599Z,5.49
2022-12-22T12:41:06.772Z,5.43
2022-12-22T12:46:49.551Z,5.35
2022-12-22T12:51:55.903Z,5.29
2022-12-22T12:57:09.882Z,5.27
2022-12-22T13:02:33.469Z,5.25
2022-12-22T13:08:16.890Z,5.26
2022-12-22T13:13:48.518Z,5.28
2022-12-22T13:19:00.134Z,5.28
2022-12-22T13:24:29.667Z,5.28
2022-12-22T13:29:47.760Z,5.26
2022-12-22T13:35:31.077Z,5.21
2022-12-22T13:40:44.018Z,5.08
2022-12-22T13:45:52.546Z,4.92
2022-12-22T13:51:01.509Z,4.80
2022-12-22T13:56:14.166Z,4.66
2022-12-22T14:01:21.501Z,4.53
2022-12-22T14:06:31.613Z,4.46
2022-12-22T14:11:37.586Z,4.44
2022-12-22T14:16:47.482Z,4.41
2022-12-22T14:22:04.100Z,4.40
2022-12-22T14:27:17.535Z,4.42
2022-12-22T14:32:41.398Z,4.42
2022-12-22T14:37:48.013Z,4.36
2022-12-22T14:42:53.866Z,4.33
2022-12-22T14:47:59.581Z,4.29
2022-12-22T14:53:06.657Z,4.22
2022-12-22T14:58:16.772Z,4.18
2022-12-22T15:03:33.683Z,4.16
2022-12-22T15:08:41.721Z,4.14
2022-12-22T15:13:50.204Z,4.15
2022-12-22T15:18:56.340Z,4.15
2022-12-22T15:24:02.163Z,4.07
2022-12-22T15:29:07.946Z,3.96
2022-12-22T15:34:19.217Z,3.86
2022-12-22T15:39:25.429Z,3.82
2022-12-22T15:44:38.330Z,3.75
2022-12-22T15:49:44.787Z,3.67
2022-12-22T15:54:50.673Z,3.62
2022-12-22T15:59:56.374Z,3.59
2022-12-22T16:05:02.260Z,3.55
2022-12-22T16:10:20.845Z,3.52
2022-12-22T16:15:28.064Z,3.53
2022-12-22T16:20:38.209Z,3.49
2022-12-22T16:25:45.929Z,3.46
2022-12-22T16:30:52.647Z,3.46
2022-12-22T16:35:58.555Z,3.41
2022-12-22T16:41:05.680Z,3.35
2022-12-22T16:46:16.136Z,3.34
2022-12-22T16:51:25.199Z,3.34
2022-12-22T16:56:32.379Z,3.32
2022-12-22T17:01:41.038Z,3.32
2022-12-22T17:06:49.096Z,3.34
2022-12-22T17:11:55.766Z,3.33
2022-12-22T17:17:01.663Z,3.32
2022-12-22T17:22:15.472Z,3.34
2022-12-22T17:27:26.151Z,3.36
2022-12-22T17:32:32.022Z,3.37
2022-12-22T17:37:39.340Z,3.31
2022-12-22T17:42:45.321Z,3.29
2022-12-22T17:47:51.486Z,3.32
2022-12-22T17:52:57.426Z,3.35
2022-12-22T17:58:03.233Z,3.34
2022-12-22T18:03:11.811Z,3.37
2022-12-22T18:08:22.151Z,3.40
2022-12-22T18:13:54.245Z,3.42
2022-12-22T18:18:59.974Z,3.42
2022-12-22T18:24:06.758Z,3.44
2022-12-22T18:29:15.422Z,3.48
2022-12-22T18:34:21.159Z,3.45
2022-12-22T18:39:26.754Z,3.45
2022-12-22T18:44:32.415Z,3.48
2022-12-22T18:49:38.481Z,3.49
2022-12-22T18:54:44.540Z,3.47
2022-12-22T18:59:50.441Z,3.50
2022-12-22T19:04:56.547Z,3.57
2022-12-22T19:10:02.356Z,3.55
2022-12-22T19:15:19.790Z,3.52
2022-12-22T19:20:26.289Z,3.49
2022-12-22T19:25:33.193Z,3.43
2022-12-22T19:30:38.917Z,3.35
2022-12-22T19:35:44.795Z,3.32
2022-12-22T19:40:54.204Z,3.35
2022-12-22T19:46:00.005Z,3.36
2022-12-22T19:51:06.118Z,3.36
2022-12-22T19:56:21.585Z,3.39
2022-12-22T20:01:27.615Z,3.42
2022-12-22T20:06:33.602Z,3.44
2022-12-22T20:11:40.129Z,3.46
2022-12-22T20:16:46.189Z,3.52
2022-12-22T20:21:52.287Z,3.60
2022-12-22T20:27:46.503Z,3.66
2022-12-22T20:32:54.541Z,3.78
2022-12-22T20:38:00.875Z,3.94
2022-12-22T20:43:11.269Z,4.05
2022-12-22T20:48:29.198Z,4.13
2022-12-22T20:53:35.737Z,4.21
2022-12-22T20:58:41.680Z,4.31
2022-12-22T21:03:47.584Z,4.34
2022-12-22T21:08:55.297Z,4.36
2022-12-22T21:14:02.004Z,4.41
2022-12-22T21:19:08.194Z,4.47
2022-12-22T21:24:14.174Z,4.49
2022-12-22T21:29:22.770Z,4.53
2022-12-22T21:34:28.551Z,4.58
2022-12-22T21:39:39.501Z,4.60
2022-12-22T21:44:45.908Z,4.60
2022-12-22T21:49:51.857Z,4.61
2022-12-22T21:54:57.756Z,4.66
2022-12-22T22:00:03.866Z,4.66
2022-12-22T22:05:21.566Z,4.64
2022-12-22T22:10:30.011Z,4.62
2022-12-22T22:15:36.956Z,4.60
2022-12-22T22:20:42.980Z,4.55
2022-12-22T22:25:56.046Z,4.51
2022-12-22T22:31:08.000Z,4.51
2022-12-22T22:36:13.872Z,4.51
2022-12-22T22:41:19.823Z,4.48
2022-12-22T22:46:25.918Z,4.49
2022-12-22T22:51:31.668Z,4.54
2022-12-22T22:56:38.828Z,4.59
2022-12-22T23:01:45.039Z,4.59
2022-12-22T23:06:50.692Z,4.62
2022-12-22T23:11:56.651Z,4.70
2022-12-22T23:17:02.423Z,4.79
2022-12-22T23:22:10.109Z,4.86
2022-12-22T23:27:17.731Z,4.95
2022-12-22T23:32:23.626Z,5.04
2022-12-22T23:37:29.280Z,5.08
2022-12-22T23:42:36.235Z,5.11
2022-12-22T23:47:42.183Z,5.15
2022-12-22T23:52:49.560Z,5.20
2022-12-22T23:57:55.771Z,5.21
